NCAR-RAP Real-Time Weather Data

Output produced by METARs form (08 May 2021  01:28 UTC)
found at http://weather.rap.ucar.edu/surface/
 
KSDF 080056Z 34003KT 10SM -RA BKN070 OVC080 14/07 A2996 RMK AO2 RAB35 SLP145 P0000 T01440067
KSDF 072356Z 22009KT 10SM FEW055 BKN095 BKN120 14/07 A2996 RMK AO2 RAE28 SLP147 SH DSNT SE-S AND NW-NE P0000 60000 T01440067 10211 20144 58006
KSDF 072256Z 27019G26KT 10SM -RA FEW055 BKN070 OVC090 15/06 A3002 RMK AO2 PK WND 26030/2211 RAB09 PRESRR SLP165 P0000 T01500061
KSDF 072156Z 25011G20KT 10SM FEW040 BKN080 BKN100 19/02 A2997 RMK AO2 RAB2059E12 SLP148 VIRGA ALQDS P0000 T01890017
KSDF 072056Z 26017G23KT 10SM FEW075 SCT090 BKN110 19/01 A2998 RMK AO2 PK WND 26027/2029 SLP153 VIRGA E AND SW T01890011 56023
KSDF 071956Z 26018G25KT 10SM FEW075 BKN090 BKN120 19/01 A3000 RMK AO2 SLP157 SH DSNT SE-S T01940011
KSDF 071856Z 27014G19KT 10SM SCT075 SCT090 BKN110 19/02 A3003 RMK AO2 SLP168 T01940022
KSDF 071756Z 31007G18KT 10SM SCT060 SCT080 BKN130 18/03 A3005 RMK AO2 SLP176 T01780033 10189 20078 58012
KSDF 071656Z 26008G21KT 10SM SCT050 SCT110 18/04 A3008 RMK AO2 SLP183 T01780039 $
KSDF 071556Z 25007G19KT 10SM FEW050 16/04 A3008 RMK AO2 SLP187 T01610044 $
KSDF 071456Z 25005KT 10SM CLR 14/04 A3009 RMK AO2 SLP189 T01390044 50000
KSDF 071356Z 24004KT 10SM FEW090 12/05 A3010 RMK AO2 SLP191 T01220050
KSDF 071256Z 27005KT 10SM FEW075 SCT090 10/05 A3010 RMK AO2 SLP192 T01000050
KSDF 071156Z 29005KT 8SM FEW080 08/05 A3009 RMK AO2 SLP189 T00780050 10117 20067 53014
KSDF 071056Z 30007KT 7SM FEW080 07/05 A3006 RMK AO2 SLP179 T00670050
KSDF 070956Z 29006KT 10SM CLR 07/04 A3005 RMK AO2 SLP174 T00670044 $